createdAt,value
2018-08-17T12:51:59.827Z,34.49
2018-08-17T12:52:59.821Z,34.31
2018-08-17T12:53:59.785Z,36.46
2018-08-17T12:54:59.882Z,34.31
2018-08-17T12:55:59.713Z,33.51
2018-08-17T12:56:59.678Z,32.43
2018-08-17T12:57:59.735Z,34.31
2018-08-17T12:58:59.672Z,33.23
2018-08-17T12:59:59.657Z,33.80
2018-08-17T13:00:59.665Z,33.62
2018-08-17T13:01:59.628Z,32.82
2018-08-17T13:02:59.630Z,31.95
2018-08-17T13:03:59.616Z,33.25
2018-08-17T13:04:59.601Z,32.17
2018-08-17T13:05:59.610Z,32.36
2018-08-17T13:06:59.585Z,33.64
2018-08-17T13:07:59.564Z,34.34
2018-08-17T13:08:59.583Z,34.05
2018-08-17T13:09:59.555Z,34.43
2018-08-17T13:11:00.140Z,33.05
2018-08-17T13:11:59.543Z,33.75
2018-08-17T13:12:59.521Z,35.53
2018-08-17T13:13:59.531Z,35.02
2018-08-17T13:14:59.493Z,33.46
2018-08-17T13:15:59.478Z,36.11
2018-08-17T13:16:59.465Z,33.17
2018-08-17T13:17:59.565Z,34.25
2018-08-17T13:18:59.467Z,34.43
2018-08-17T13:19:59.452Z,32.26
2018-08-17T13:20:59.460Z,34.01
2018-08-17T13:21:59.422Z,32.34
2018-08-17T13:22:59.431Z,31.45
2018-08-17T13:23:59.427Z,32.15
2018-08-17T13:24:59.395Z,32.53
2018-08-17T13:27:09.805Z,32.21
2018-08-17T13:28:09.672Z,32.02
2018-08-17T13:29:09.642Z,31.92
2018-08-17T13:30:09.610Z,31.92
2018-08-17T13:31:09.643Z,32.01
2018-08-17T13:32:09.569Z,31.32
2018-08-17T13:33:09.608Z,30.93
2018-08-17T13:34:09.588Z,31.32
2018-08-17T13:35:09.553Z,31.90
2018-08-17T13:36:09.650Z,32.09
2018-08-17T13:37:09.551Z,32.38
2018-08-17T13:38:09.540Z,32.17
2018-08-17T13:39:09.490Z,32.07
2018-08-17T13:40:09.482Z,31.47
2018-08-17T13:41:09.488Z,31.07
2018-08-17T13:42:09.571Z,30.01
2018-08-17T13:43:09.485Z,31.87
2018-08-17T13:44:09.468Z,31.77
2018-08-17T13:45:09.451Z,29.82
2018-08-17T13:46:09.420Z,31.29
2018-08-17T13:47:09.456Z,30.68
2018-08-17T13:48:09.455Z,31.47
2018-08-17T13:49:09.413Z,29.70
2018-08-17T13:50:09.374Z,31.76
2018-08-17T13:51:09.355Z,31.45
2018-08-17T13:52:09.425Z,33.31
2018-08-17T13:53:09.364Z,31.93
2018-08-17T13:54:09.347Z,31.63
2018-08-17T13:55:09.336Z,31.24
2018-08-17T13:56:09.311Z,31.54
2018-08-17T13:57:09.349Z,32.22
2018-08-17T13:58:09.324Z,31.65
2018-08-17T13:59:09.482Z,31.47
2018-08-17T14:00:09.274Z,30.68
2018-08-17T14:01:09.245Z,30.98
2018-08-17T14:02:09.290Z,30.99
2018-08-17T14:03:09.220Z,31.40
2018-08-17T14:04:09.219Z,31.89
2018-08-17T14:05:09.224Z,32.38
2018-08-17T14:06:09.194Z,32.18
2018-08-17T14:07:09.174Z,31.61
2018-08-17T14:08:09.235Z,32.01
2018-08-17T14:09:09.164Z,31.30
2018-08-17T14:10:09.256Z,31.12
2018-08-17T14:11:09.143Z,31.01
2018-08-17T14:12:09.124Z,31.79
2018-08-17T14:13:09.121Z,29.93
2018-08-17T14:14:09.111Z,29.83
2018-08-17T14:15:09.092Z,31.50
2018-08-17T14:16:09.101Z,30.42
2018-08-17T14:17:09.079Z,30.90
2018-08-17T14:18:09.053Z,31.50
2018-08-17T14:19:09.060Z,30.99
2018-08-17T14:20:09.041Z,31.77
2018-08-17T14:21:09.030Z,32.06
2018-08-17T14:22:09.089Z,31.07
2018-08-17T14:23:09.036Z,30.49
2018-08-17T14:24:09.012Z,30.39
2018-08-17T14:25:08.981Z,30.96
2018-08-17T14:26:08.973Z,30.85
2018-08-17T14:27:08.968Z,29.46
2018-08-17T14:28:09.097Z,29.38
2018-08-17T14:29:08.952Z,29.85
2018-08-17T14:30:08.931Z,28.88
2018-08-17T14:31:08.924Z,29.27
2018-08-17T14:32:08.913Z,29.85
2018-08-17T14:33:08.908Z,30.43
2018-08-17T14:34:08.925Z,30.43
2018-08-17T14:35:08.889Z,29.63
2018-08-17T14:36:08.872Z,28.75
2018-08-17T14:37:08.861Z,28.36
2018-08-17T14:38:08.846Z,27.48
2018-08-17T14:39:08.844Z,27.87
2018-08-17T14:40:08.845Z,28.85
2018-08-17T14:41:15.393Z,28.85
2018-08-17T14:42:08.809Z,29.63
2018-08-17T14:43:08.796Z,30.72
2018-08-17T14:44:08.798Z,29.16
2018-08-17T14:45:08.777Z,29.95
2018-08-17T14:46:08.786Z,28.68
2018-08-17T14:47:08.756Z,29.38
2018-08-17T14:48:08.744Z,29.20
2018-08-17T14:49:08.746Z,30.49
2018-08-17T14:50:08.721Z,29.52
2018-08-17T14:51:08.710Z,30.91
2018-08-17T14:52:08.734Z,30.14
2018-08-17T14:53:08.700Z,31.13
2018-08-17T14:54:08.698Z,31.82
2018-08-17T14:55:08.664Z,32.71
2018-08-17T14:56:08.657Z,31.54
2018-08-17T14:57:08.644Z,33.51
2018-08-17T14:58:08.668Z,31.84
2018-08-17T14:59:08.625Z,32.04
2018-08-17T15:00:08.650Z,31.94
2018-08-17T15:01:08.626Z,31.74
2018-08-17T15:02:08.595Z,31.36
2018-08-17T15:03:08.577Z,32.15
2018-08-17T15:04:08.587Z,32.24
2018-08-17T15:05:08.565Z,32.26
2018-08-17T15:06:08.560Z,32.36
2018-08-17T15:07:08.536Z,33.36
2018-08-17T15:08:08.532Z,34.63
2018-08-17T15:09:08.519Z,35.53
2018-08-17T15:10:08.530Z,36.80
2018-08-17T15:11:08.508Z,34.54
2018-08-17T15:12:08.481Z,34.34
2018-08-17T15:13:08.591Z,33.46
2018-08-17T15:14:08.465Z,34.44
2018-08-17T15:15:08.453Z,34.84
2018-08-17T15:16:08.472Z,33.26
2018-08-17T15:17:08.427Z,32.48
2018-08-17T15:18:08.418Z,32.98
2018-08-17T15:19:08.414Z,34.06
2018-08-17T15:20:08.455Z,34.27
2018-08-17T15:21:08.400Z,34.27
2018-08-17T15:22:08.394Z,34.36
2018-08-17T15:23:09.350Z,33.87
2018-08-17T15:24:08.353Z,35.56
2018-08-17T15:25:08.345Z,35.46
2018-08-17T15:26:08.339Z,36.15
2018-08-17T15:27:08.339Z,35.07
2018-08-17T15:28:08.300Z,35.86
2018-08-17T15:29:08.307Z,38.22
2018-08-17T15:30:08.293Z,39.79
2018-08-17T15:31:08.292Z,38.32
2018-08-17T15:32:08.267Z,36.92
2018-08-17T15:33:08.297Z,35.72
2018-08-17T15:34:08.253Z,35.53
2018-08-17T15:35:08.238Z,34.03
2018-08-17T15:36:08.239Z,34.31
2018-08-17T15:37:08.214Z,33.72
2018-08-17T15:38:08.204Z,34.31
2018-08-17T15:39:08.214Z,33.02
2018-08-17T15:40:08.182Z,34.20
2018-08-17T15:41:08.249Z,35.67
2018-08-17T15:42:08.156Z,32.72
2018-08-17T15:43:08.151Z,33.12
2018-08-17T15:44:08.144Z,32.34
2018-08-17T15:45:08.139Z,32.74
2018-08-17T15:46:08.133Z,32.15
2018-08-17T15:47:08.108Z,32.54
2018-08-17T15:48:08.095Z,34.01
2018-08-17T15:49:08.084Z,33.31
2018-08-17T15:50:08.076Z,33.51
2018-08-17T15:51:08.173Z,33.51
2018-08-17T15:52:08.067Z,34.38
2018-08-17T15:53:08.051Z,33.38
2018-08-17T15:54:08.031Z,33.77
2018-08-17T15:55:08.020Z,33.65
2018-08-17T15:56:08.078Z,32.28
2018-08-17T15:57:08.030Z,31.30
2018-08-17T15:58:08.053Z,31.89
2018-08-17T15:59:07.978Z,31.71
2018-08-17T16:00:07.965Z,31.50
2018-08-17T16:01:07.992Z,32.78
2018-08-17T16:02:07.960Z,31.70
2018-08-17T16:03:07.934Z,32.87
2018-08-17T16:04:07.944Z,32.09
2018-08-17T16:05:07.920Z,31.89
2018-08-17T16:06:07.902Z,31.20
2018-08-17T16:07:07.901Z,31.50
2018-08-17T16:08:07.883Z,31.99
2018-08-17T16:09:07.872Z,31.48
2018-08-17T16:10:07.879Z,32.17
2018-08-17T16:11:07.848Z,31.09
2018-08-17T16:12:07.849Z,30.91
2018-08-17T16:13:07.833Z,31.79
2018-08-17T16:14:07.815Z,32.68
2018-08-17T16:15:07.807Z,31.99
2018-08-17T16:16:07.820Z,31.20
2018-08-17T16:17:07.795Z,31.20
2018-08-17T16:18:07.773Z,31.81
2018-08-17T16:19:07.762Z,31.71
2018-08-17T16:20:07.748Z,30.82
2018-08-17T16:21:07.743Z,31.92
2018-08-17T16:22:07.762Z,31.64
2018-08-17T16:23:07.717Z,32.53
2018-08-17T16:24:07.708Z,32.05
2018-08-17T16:25:07.706Z,31.87
2018-08-17T16:26:07.690Z,31.98
2018-08-17T16:27:07.683Z,33.36
2018-08-17T16:28:07.685Z,33.77
2018-08-17T16:29:07.649Z,34.18
2018-08-17T16:30:07.645Z,35.76
2018-08-17T16:31:07.632Z,35.27
2018-08-17T16:32:07.646Z,35.58
2018-08-17T16:33:07.626Z,36.36
2018-08-17T16:34:07.619Z,36.17
2018-08-17T16:35:07.591Z,35.79
2018-08-17T16:36:07.580Z,39.94
2018-08-17T16:37:07.575Z,37.19
2018-08-17T16:38:07.576Z,37.68
2018-08-17T16:39:07.541Z,38.47
2018-08-17T16:40:07.555Z,39.65
2018-08-17T16:41:07.516Z,40.07
2018-08-17T16:42:07.515Z,39.26
2018-08-17T16:43:07.508Z,41.36
2018-08-17T16:44:07.503Z,41.46
2018-08-17T16:45:07.490Z,40.66
2018-08-17T16:46:07.495Z,42.64
2018-08-17T16:47:07.461Z,40.56
2018-08-17T16:48:07.448Z,43.43
2018-08-17T16:49:07.460Z,42.76
2018-08-17T16:50:07.428Z,40.29
2018-08-17T16:51:07.418Z,43.05
2018-08-17T16:52:07.424Z,42.78
2018-08-17T16:53:07.411Z,41.57
2018-08-17T16:54:07.402Z,43.07
2018-08-17T16:55:07.376Z,43.57
2018-08-17T16:56:07.361Z,42.88
2018-08-17T16:57:07.359Z,43.96
2018-08-17T16:58:07.352Z,43.57
2018-08-17T16:59:07.524Z,45.86
2018-08-17T17:00:07.317Z,44.78
2018-08-17T17:01:07.887Z,42.80
2018-08-17T17:02:07.301Z,43.39
2018-08-17T17:03:07.288Z,43.41
2018-08-17T17:04:07.455Z,44.60
2018-08-17T17:05:07.261Z,44.10
2018-08-17T17:06:07.276Z,42.82
2018-08-17T17:07:07.242Z,42.72
2018-08-17T17:08:07.239Z,41.65
2018-08-17T17:09:07.261Z,41.04
2018-08-17T17:10:07.253Z,41.06
2018-08-17T17:11:07.189Z,42.74
2018-08-17T17:12:07.189Z,42.54
2018-08-17T17:13:07.170Z,43.83
2018-08-17T17:14:07.216Z,44.92
2018-08-17T17:15:07.153Z,43.33
2018-08-17T17:16:07.160Z,44.23
2018-08-17T17:17:07.131Z,45.83
2018-08-17T17:18:07.125Z,45.31
2018-08-17T17:19:07.121Z,45.14
2018-08-17T17:20:07.103Z,44.64
2018-08-17T17:21:07.088Z,44.94
2018-08-17T17:22:07.090Z,44.84
2018-08-17T17:23:07.065Z,46.25
2018-08-17T17:24:07.073Z,45.75
2018-08-17T17:25:07.049Z,45.95
2018-08-17T17:26:07.034Z,47.53
2018-08-17T17:27:07.077Z,47.46
2018-08-17T17:28:07.026Z,49.54
2018-08-17T17:29:07.033Z,47.75
2018-08-17T17:30:07.044Z,48.75
2018-08-17T17:31:06.982Z,48.35
2018-08-17T17:32:06.986Z,49.27
2018-08-17T17:33:06.962Z,48.67
2018-08-17T17:34:06.964Z,49.76
2018-08-17T17:35:06.960Z,48.38
2018-08-17T17:36:06.928Z,46.98
2018-08-17T17:37:06.913Z,48.97
2018-08-17T17:38:06.900Z,48.47
2018-08-17T17:39:06.893Z,47.71
2018-08-17T17:40:06.897Z,48.00
2018-08-17T17:41:06.881Z,50.58
2018-08-17T17:42:06.859Z,49.19
2018-08-17T17:43:06.844Z,49.59
2018-08-17T17:44:06.835Z,49.49
2018-08-17T17:45:06.822Z,49.21
2018-08-17T17:46:06.860Z,50.51
2018-08-17T17:47:06.804Z,49.32
2018-08-17T17:48:06.792Z,49.61
2018-08-17T17:49:06.785Z,50.11
2018-08-17T17:50:06.775Z,50.73
2018-08-17T17:51:06.787Z,50.33
2018-08-17T17:52:06.764Z,50.53
2018-08-17T17:53:06.747Z,50.33
2018-08-17T17:54:06.733Z,50.53
2018-08-17T17:55:06.714Z,50.53
2018-08-17T17:56:06.718Z,50.95
2018-08-17T17:57:06.696Z,50.65
2018-08-17T17:58:06.712Z,50.75
2018-08-17T17:59:06.667Z,50.78
2018-08-17T18:00:06.666Z,51.17
2018-08-17T18:01:06.663Z,50.68
2018-08-17T18:02:06.641Z,51.07
2018-08-17T18:03:06.631Z,52.00
2018-08-17T18:04:06.633Z,53.28
2018-08-17T18:05:06.607Z,53.28
2018-08-17T18:06:06.612Z,52.00
2018-08-17T18:07:06.588Z,52.09
2018-08-17T18:08:06.574Z,52.09
2018-08-17T18:09:06.569Z,52.22
2018-08-17T18:10:06.573Z,50.95
2018-08-17T18:11:06.558Z,51.03
2018-08-17T18:12:06.532Z,51.05
2018-08-17T18:13:06.611Z,52.64
2018-08-17T18:14:06.507Z,52.04
2018-08-17T18:15:06.500Z,52.74
2018-08-17T18:16:06.517Z,52.94
2018-08-17T18:17:06.470Z,53.04
2018-08-17T18:18:06.466Z,52.44
2018-08-17T18:19:06.449Z,53.24
2018-08-17T18:20:06.436Z,53.14
2018-08-17T18:21:06.439Z,53.94
2018-08-17T18:22:06.431Z,54.53
2018-08-17T18:23:06.407Z,55.03
2018-08-17T18:24:06.418Z,54.93
2018-08-17T18:25:06.383Z,55.05
2018-08-17T18:26:06.383Z,55.65
2018-08-17T18:27:06.356Z,55.55
2018-08-17T18:28:06.359Z,54.86
2018-08-17T18:29:06.336Z,54.96
2018-08-17T18:30:06.326Z,55.05
2018-08-17T18:31:06.312Z,54.46
2018-08-17T18:32:06.318Z,54.36
2018-08-17T18:33:06.288Z,54.96
2018-08-17T18:34:06.293Z,55.05
2018-08-17T18:35:06.307Z,55.26
2018-08-17T18:36:06.260Z,54.96
2018-08-17T18:37:06.244Z,54.96
2018-08-17T18:38:06.250Z,55.35
2018-08-17T18:39:06.226Z,54.96
2018-08-17T18:40:06.223Z,55.05
2018-08-17T18:41:06.192Z,54.96
2018-08-17T18:42:06.181Z,55.16
2018-08-17T18:43:06.194Z,54.26
2018-08-17T18:44:06.158Z,54.08
2018-08-17T18:45:06.150Z,54.68
2018-08-17T18:46:06.152Z,53.66
2018-08-17T18:47:06.127Z,55.18
2018-08-17T18:48:06.114Z,54.06
2018-08-17T18:49:06.126Z,54.58
2018-08-17T18:50:06.101Z,52.99
2018-08-17T18:51:06.080Z,55.08
2018-08-17T18:52:06.097Z,54.88
2018-08-17T18:53:06.070Z,55.88
2018-08-17T18:54:06.049Z,55.18
2018-08-17T18:55:06.064Z,54.88
2018-08-17T18:56:06.026Z,54.98
2018-08-17T18:57:06.028Z,55.28
2018-08-17T18:58:06.024Z,55.01
2018-08-17T18:59:06.048Z,56.70
2018-08-17T19:00:06.012Z,55.41
2018-08-17T19:01:05.970Z,55.41
2018-08-17T19:02:05.950Z,55.21
2018-08-17T19:03:05.948Z,55.73
2018-08-17T19:04:05.942Z,55.83
2018-08-17T19:05:05.920Z,56.03
2018-08-17T19:06:05.927Z,54.64
2018-08-17T19:07:05.903Z,56.03
2018-08-17T19:08:05.896Z,52.84
2018-08-17T19:09:05.872Z,52.64
2018-08-17T19:10:05.896Z,54.74
2018-08-17T19:11:05.883Z,53.44
2018-08-17T19:12:05.844Z,55.04
2018-08-17T19:13:05.838Z,55.13
2018-08-17T19:14:05.826Z,55.54
2018-08-17T19:15:05.813Z,55.04
2018-08-17T19:16:05.924Z,58.03
2018-08-17T19:17:05.790Z,59.72
2018-08-17T19:18:05.814Z,58.45
2018-08-17T19:19:05.776Z,58.95
2018-08-17T19:20:05.764Z,57.35
2018-08-17T19:21:06.449Z,56.46
2018-08-17T19:22:05.756Z,56.26
2018-08-17T19:23:05.731Z,57.15
2018-08-17T19:24:05.736Z,58.28
2018-08-17T19:25:05.703Z,59.55
2018-08-17T19:26:05.692Z,58.58
2018-08-17T19:27:05.708Z,57.68
2018-08-17T19:28:05.681Z,56.68
2018-08-17T19:29:05.660Z,56.48
2018-08-17T19:30:05.648Z,56.88
2018-08-17T19:31:05.637Z,53.89
2018-08-17T19:32:05.649Z,56.51
2018-08-17T19:33:05.632Z,56.29
2018-08-17T19:34:06.421Z,55.29
2018-08-17T19:35:05.595Z,55.39
2018-08-17T19:36:05.578Z,55.58
2018-08-17T19:37:05.572Z,54.29
2018-08-17T19:38:20.123Z,55.58
2018-08-17T19:39:23.834Z,54.69
2018-08-17T19:40:05.704Z,54.09
2018-08-17T19:41:05.578Z,53.29
2018-08-17T19:43:48.912Z,55.09
